createdAt,value
2016-10-15T00:00:38.933Z,0
2016-10-15T00:01:38.922Z,0
2016-10-15T00:02:38.900Z,0
2016-10-15T00:03:38.890Z,0
2016-10-15T00:04:38.885Z,0
2016-10-15T00:05:39.177Z,0
2016-10-15T00:06:39.176Z,0
2016-10-15T00:07:38.838Z,0
2016-10-15T00:08:38.819Z,0
2016-10-15T00:09:39.126Z,0
2016-10-15T00:10:39.114Z,0
2016-10-15T00:11:38.778Z,0
2016-10-15T00:12:38.770Z,0
2016-10-15T00:13:39.067Z,0
2016-10-15T00:14:38.745Z,0
2016-10-15T00:15:38.728Z,0
2016-10-15T00:16:38.714Z,0
2016-10-15T00:17:38.748Z,0
2016-10-15T00:18:38.996Z,0
2016-10-15T00:19:38.702Z,0
2016-10-15T00:20:38.658Z,0
2016-10-15T00:21:38.650Z,0
2016-10-15T00:22:38.643Z,0
2016-10-15T00:23:38.926Z,0
2016-10-15T00:24:38.623Z,0
2016-10-15T00:25:38.907Z,0
2016-10-15T00:26:38.580Z,0
2016-10-15T00:27:39.197Z,0
2016-10-15T00:28:38.870Z,0
2016-10-15T00:29:38.543Z,0
2016-10-15T00:30:38.515Z,0
2016-10-15T00:31:38.512Z,0
2016-10-15T00:32:38.497Z,0
2016-10-15T00:33:38.796Z,0
2016-10-15T00:34:38.474Z,0
2016-10-15T00:35:38.455Z,0
2016-10-15T00:36:38.437Z,0
2016-10-15T00:37:38.431Z,0
2016-10-15T00:38:38.416Z,0
2016-10-15T00:39:39.024Z,0
2016-10-15T00:40:38.397Z,0
2016-10-15T00:41:38.368Z,0
2016-10-15T00:42:38.367Z,0
2016-10-15T00:43:38.344Z,0
2016-10-15T00:44:38.650Z,0
2016-10-15T00:45:38.636Z,0
2016-10-15T00:46:38.618Z,0
2016-10-15T00:47:38.607Z,0
2016-10-15T00:48:38.587Z,0
2016-10-15T00:49:38.268Z,0
2016-10-15T00:50:38.560Z,0
2016-10-15T00:51:38.552Z,0
2016-10-15T00:52:38.592Z,0
2016-10-15T00:53:38.215Z,0
2016-10-15T00:54:38.191Z,0
2016-10-15T00:55:38.181Z,0
2016-10-15T00:56:38.166Z,0
2016-10-15T00:57:38.147Z,0
2016-10-15T00:58:38.139Z,0
2016-10-15T00:59:38.445Z,0
2016-10-15T01:00:38.110Z,0
2016-10-15T01:01:38.108Z,0
2016-10-15T01:02:38.082Z,0
2016-10-15T01:03:38.076Z,0
2016-10-15T01:04:38.054Z,0
2016-10-15T01:05:38.041Z,0
2016-10-15T01:06:38.021Z,0
2016-10-15T01:07:38.017Z,0
2016-10-15T01:08:38.002Z,0
2016-10-15T01:09:37.997Z,0
2016-10-15T01:10:38.315Z,0
2016-10-15T01:11:37.972Z,0
2016-10-15T01:12:38.264Z,0
2016-10-15T01:13:38.442Z,0
2016-10-15T01:14:37.913Z,0
2016-10-15T01:15:37.903Z,0
2016-10-15T01:16:38.519Z,0
2016-10-15T01:17:38.184Z,0
2016-10-15T01:18:37.861Z,0
2016-10-15T01:19:37.852Z,0
2016-10-15T01:20:37.837Z,0
2016-10-15T01:21:38.143Z,0
2016-10-15T01:22:37.812Z,0
2016-10-15T01:23:38.416Z,0
2016-10-15T01:24:37.780Z,0
2016-10-15T01:25:38.076Z,0
2016-10-15T01:26:37.750Z,0
2016-10-15T01:27:37.732Z,0
2016-10-15T01:28:37.719Z,0
2016-10-15T01:29:37.710Z,0
2016-10-15T01:30:38.032Z,0
2016-10-15T01:31:37.684Z,0
2016-10-15T01:32:37.671Z,0
2016-10-15T01:33:37.651Z,0
2016-10-15T01:34:37.955Z,0
2016-10-15T01:35:37.663Z,0
2016-10-15T01:36:37.610Z,0
2016-10-15T01:37:37.606Z,0
2016-10-15T01:38:37.596Z,0
2016-10-15T01:39:37.886Z,0
2016-10-15T01:40:37.563Z,0
2016-10-15T01:41:37.544Z,0
2016-10-15T01:42:37.544Z,0
2016-10-15T01:43:37.566Z,0
2016-10-15T01:44:37.507Z,0
2016-10-15T01:45:37.490Z,0
2016-10-15T01:46:37.788Z,0
2016-10-15T01:47:37.472Z,0
2016-10-15T01:48:37.442Z,0
2016-10-15T01:49:37.433Z,0
2016-10-15T01:50:37.425Z,0
2016-10-15T01:51:38.060Z,0
2016-10-15T01:52:37.399Z,0
2016-10-15T01:53:37.382Z,0
2016-10-15T01:54:37.677Z,0
2016-10-15T01:55:37.353Z,0
2016-10-15T01:56:37.341Z,0
2016-10-15T01:57:37.651Z,0
2016-10-15T01:58:37.315Z,0
2016-10-15T01:59:37.291Z,0
2016-10-15T02:00:37.304Z,0
2016-10-15T02:01:37.267Z,0
2016-10-15T02:02:37.258Z,0
2016-10-15T02:03:37.250Z,0
2016-10-15T02:04:37.228Z,0
2016-10-15T02:05:37.219Z,0
2016-10-15T02:06:37.254Z,0
2016-10-15T02:07:37.184Z,0
2016-10-15T02:08:37.175Z,0
2016-10-15T02:09:37.159Z,0
2016-10-15T02:10:37.460Z,0
2016-10-15T02:11:37.129Z,0
2016-10-15T02:12:37.110Z,0
2016-10-15T02:13:37.104Z,0
2016-10-15T02:14:37.403Z,0
2016-10-15T02:15:37.088Z,0
2016-10-15T02:16:37.072Z,0
2016-10-15T02:17:37.071Z,0
2016-10-15T02:18:37.035Z,0
2016-10-15T02:19:37.026Z,0
2016-10-15T02:20:37.006Z,0
2016-10-15T02:21:36.988Z,0
2016-10-15T02:22:36.977Z,0
2016-10-15T02:23:37.279Z,0
2016-10-15T02:24:36.976Z,0
2016-10-15T02:25:36.939Z,0
2016-10-15T02:26:37.234Z,0
2016-10-15T02:27:36.909Z,0
2016-10-15T02:28:36.899Z,0
2016-10-15T02:29:36.880Z,0
2016-10-15T02:30:36.866Z,0
2016-10-15T02:31:36.894Z,0
2016-10-15T02:32:37.146Z,0
2016-10-15T02:33:36.826Z,0
2016-10-15T02:34:36.803Z,0
2016-10-15T02:35:36.795Z,0
2016-10-15T02:36:36.786Z,0
2016-10-15T02:37:36.768Z,0
2016-10-15T02:38:36.755Z,0
2016-10-15T02:39:36.734Z,0
2016-10-15T02:40:36.723Z,0
2016-10-15T02:41:36.709Z,0
2016-10-15T02:42:36.696Z,0
2016-10-15T02:43:36.683Z,0
2016-10-15T02:44:37.020Z,0
2016-10-15T02:45:36.646Z,0
2016-10-15T02:46:36.948Z,0
2016-10-15T02:47:36.941Z,0
2016-10-15T02:48:36.612Z,0
2016-10-15T02:49:36.595Z,0
2016-10-15T02:50:36.579Z,0
2016-10-15T02:51:36.566Z,0
2016-10-15T02:52:36.549Z,0
2016-10-15T02:53:36.536Z,0
2016-10-15T02:54:36.517Z,0
2016-10-15T02:55:36.511Z,0
2016-10-15T02:56:36.491Z,0
2016-10-15T02:57:36.480Z,0
2016-10-15T02:58:36.462Z,0
2016-10-15T02:59:36.447Z,0
2016-10-15T03:00:36.438Z,0
2016-10-15T03:01:36.425Z,0
2016-10-15T03:02:36.418Z,0
2016-10-15T03:03:36.706Z,0
2016-10-15T03:04:36.376Z,0
2016-10-15T03:05:36.984Z,0
2016-10-15T03:06:36.365Z,0
2016-10-15T03:07:36.389Z,0
2016-10-15T03:08:36.329Z,0
2016-10-15T03:09:36.304Z,0
2016-10-15T03:10:36.291Z,0
2016-10-15T03:11:36.896Z,0
2016-10-15T03:12:36.257Z,0
2016-10-15T03:13:36.873Z,0
2016-10-15T03:14:37.059Z,0
2016-10-15T03:15:36.239Z,0
2016-10-15T03:16:36.203Z,0
2016-10-15T03:17:36.499Z,0
2016-10-15T03:18:36.168Z,0
2016-10-15T03:19:36.487Z,0
2016-10-15T03:20:36.146Z,0
2016-10-15T03:21:36.124Z,0
2016-10-15T03:22:36.114Z,0
2016-10-15T03:23:36.099Z,0
2016-10-15T03:24:36.091Z,0
2016-10-15T03:25:36.071Z,0
2016-10-15T03:26:36.057Z,0
2016-10-15T03:27:36.354Z,0
2016-10-15T03:28:36.032Z,0
2016-10-15T03:29:36.319Z,0
2016-10-15T03:30:36.633Z,0
2016-10-15T03:31:35.981Z,0
2016-10-15T03:32:36.276Z,0
2016-10-15T03:33:36.295Z,0
2016-10-15T03:34:36.251Z,0
2016-10-15T03:35:35.921Z,0
2016-10-15T03:36:36.229Z,0
2016-10-15T03:37:36.532Z,0
2016-10-15T03:38:35.876Z,0
2016-10-15T03:39:35.865Z,0
2016-10-15T03:40:35.841Z,0
2016-10-15T03:41:35.829Z,0
2016-10-15T03:42:36.128Z,0
2016-10-15T03:43:35.802Z,0
2016-10-15T03:44:35.787Z,0
2016-10-15T03:45:36.109Z,0
2016-10-15T03:46:36.080Z,0
2016-10-15T03:47:36.073Z,0
2016-10-15T03:48:35.729Z,0
2016-10-15T03:49:35.714Z,0
2016-10-15T03:50:35.714Z,0
2016-10-15T03:51:35.678Z,0
2016-10-15T03:52:35.673Z,0
2016-10-15T03:53:35.649Z,0
2016-10-15T03:54:35.642Z,0
2016-10-15T03:55:35.621Z,0
2016-10-15T03:56:35.605Z,0
2016-10-15T03:57:35.595Z,0
2016-10-15T03:58:35.889Z,0
2016-10-15T03:59:35.573Z,0
2016-10-15T04:00:35.867Z,0
2016-10-15T04:01:35.531Z,0
2016-10-15T04:02:35.520Z,0
2016-10-15T04:03:35.815Z,0
2016-10-15T04:04:35.493Z,0
2016-10-15T04:05:36.104Z,0
2016-10-15T04:06:35.464Z,0
2016-10-15T04:07:35.445Z,0
2016-10-15T04:08:36.056Z,0
2016-10-15T04:09:35.430Z,0
2016-10-15T04:10:35.709Z,0
2016-10-15T04:11:35.385Z,0
2016-10-15T04:12:35.367Z,0
2016-10-15T04:13:35.663Z,0
2016-10-15T04:14:35.335Z,0
2016-10-15T04:15:35.326Z,0
2016-10-15T04:16:35.307Z,0
2016-10-15T04:17:35.290Z,0
2016-10-15T04:18:35.277Z,0
2016-10-15T04:19:35.261Z,0
2016-10-15T04:20:35.559Z,0
2016-10-15T04:21:35.231Z,0
2016-10-15T04:22:35.216Z,0
2016-10-15T04:23:35.199Z,0
2016-10-15T04:24:35.184Z,0
2016-10-15T04:25:35.487Z,0
2016-10-15T04:26:35.154Z,0
2016-10-15T04:27:35.466Z,0
2016-10-15T04:28:35.124Z,0
2016-10-15T04:29:35.428Z,0
2016-10-15T04:30:35.096Z,0
2016-10-15T04:31:35.088Z,0
2016-10-15T04:32:35.066Z,0
2016-10-15T04:33:35.054Z,0
2016-10-15T04:34:35.044Z,0
2016-10-15T04:35:35.023Z,0
2016-10-15T04:36:35.020Z,0
2016-10-15T04:37:34.991Z,0
2016-10-15T04:38:34.988Z,0
2016-10-15T04:39:34.965Z,0
2016-10-15T04:40:34.954Z,0
2016-10-15T04:41:35.253Z,0
2016-10-15T04:42:34.922Z,0
2016-10-15T04:43:34.915Z,0
2016-10-15T04:44:34.894Z,0
2016-10-15T04:45:34.880Z,0
2016-10-15T04:46:34.880Z,0
2016-10-15T04:47:34.851Z,0
2016-10-15T04:48:34.834Z,0
2016-10-15T04:49:34.840Z,0
2016-10-15T04:50:34.804Z,0
2016-10-15T04:51:34.797Z,0
2016-10-15T04:52:35.096Z,0
2016-10-15T04:53:34.768Z,0
2016-10-15T04:54:34.751Z,0
2016-10-15T04:55:35.363Z,0
2016-10-15T04:56:35.080Z,0
2016-10-15T04:57:35.013Z,0
2016-10-15T04:58:34.683Z,0
2016-10-15T04:59:34.671Z,0
2016-10-15T05:00:34.973Z,0
2016-10-15T05:01:34.642Z,0
2016-10-15T05:02:34.637Z,0
2016-10-15T05:03:34.926Z,0
2016-10-15T05:04:34.603Z,0
2016-10-15T05:05:34.582Z,0
2016-10-15T05:06:34.569Z,0
2016-10-15T05:07:34.555Z,0
2016-10-15T05:08:34.539Z,0
2016-10-15T05:09:34.527Z,0
2016-10-15T05:10:34.512Z,0
2016-10-15T05:11:34.502Z,0
2016-10-15T05:12:34.790Z,0
2016-10-15T05:13:34.470Z,0
2016-10-15T05:14:34.992Z,0
2016-10-15T05:15:34.766Z,0
2016-10-15T05:16:34.737Z,0
2016-10-15T05:17:34.726Z,0
2016-10-15T05:18:34.398Z,0
2016-10-15T05:19:34.693Z,0
2016-10-15T05:20:34.673Z,0
2016-10-15T05:21:34.346Z,0
2016-10-15T05:22:34.646Z,0
2016-10-15T05:23:34.325Z,0
2016-10-15T05:24:34.309Z,0
2016-10-15T05:25:34.608Z,0
2016-10-15T05:26:34.283Z,0
2016-10-15T05:27:34.256Z,0
2016-10-15T05:28:34.235Z,0
2016-10-15T05:29:34.540Z,0
2016-10-15T05:30:34.524Z,0
2016-10-15T05:31:34.522Z,4
2016-10-15T05:32:35.053Z,4
2016-10-15T05:33:34.524Z,4
2016-10-15T05:34:34.408Z,4
2016-10-15T05:35:34.772Z,4
2016-10-15T05:36:34.440Z,8
2016-10-15T05:37:34.420Z,8
2016-10-15T05:38:34.096Z,8
2016-10-15T05:39:34.403Z,8
2016-10-15T05:40:34.692Z,12
2016-10-15T05:41:34.059Z,8
2016-10-15T05:42:34.352Z,12
2016-10-15T05:43:34.017Z,16
2016-10-15T05:44:34.008Z,20
2016-10-15T05:45:34.094Z,24
2016-10-15T05:46:33.980Z,32
2016-10-15T05:47:34.295Z,32
2016-10-15T05:48:33.952Z,40
2016-10-15T05:49:34.334Z,44
2016-10-15T05:50:33.916Z,44
2016-10-15T05:51:34.533Z,48
2016-10-15T05:52:34.227Z,52
2016-10-15T05:53:33.876Z,48
2016-10-15T05:54:33.863Z,52
2016-10-15T05:55:33.846Z,60
2016-10-15T05:56:33.831Z,64
2016-10-15T05:57:34.153Z,72
2016-10-15T05:58:33.806Z,76
2016-10-15T05:59:33.791Z,84
2016-10-15T06:00:33.782Z,84
2016-10-15T06:01:34.071Z,84
2016-10-15T06:02:33.749Z,80
2016-10-15T06:03:33.748Z,88
2016-10-15T06:04:33.721Z,88
2016-10-15T06:05:33.705Z,88
2016-10-15T06:06:33.701Z,80
2016-10-15T06:07:33.675Z,84
2016-10-15T06:08:33.658Z,92
2016-10-15T06:09:33.964Z,100
2016-10-15T06:10:33.632Z,112
2016-10-15T06:11:33.932Z,120
2016-10-15T06:12:33.605Z,124
2016-10-15T06:13:33.592Z,124
2016-10-15T06:14:33.884Z,128
2016-10-15T06:15:33.880Z,128
2016-10-15T06:16:33.552Z,128
2016-10-15T06:17:33.855Z,132
2016-10-15T06:18:33.531Z,140
2016-10-15T06:19:33.527Z,148
2016-10-15T06:20:33.828Z,144
2016-10-15T06:21:33.480Z,148
2016-10-15T06:22:33.786Z,152
2016-10-15T06:23:33.446Z,160
2016-10-15T06:24:33.440Z,184
2016-10-15T06:25:33.426Z,224
2016-10-15T06:26:33.416Z,240
2016-10-15T06:27:33.407Z,228
2016-10-15T06:28:33.384Z,224
2016-10-15T06:29:33.372Z,240
2016-10-15T06:30:33.979Z,264
2016-10-15T06:31:33.659Z,312
2016-10-15T06:32:33.322Z,356
2016-10-15T06:33:33.622Z,368
2016-10-15T06:34:33.619Z,432
2016-10-15T06:35:33.596Z,480
2016-10-15T06:36:33.265Z,504
2016-10-15T06:37:33.576Z,492
2016-10-15T06:38:33.240Z,444
2016-10-15T06:39:33.232Z,448
2016-10-15T06:40:33.212Z,476
2016-10-15T06:41:33.838Z,460
2016-10-15T06:42:33.190Z,464
2016-10-15T06:43:33.498Z,460
2016-10-15T06:44:33.169Z,456
2016-10-15T06:45:33.160Z,432
2016-10-15T06:46:33.129Z,440
2016-10-15T06:47:33.126Z,452
2016-10-15T06:48:33.102Z,464
2016-10-15T06:49:33.083Z,500
2016-10-15T06:50:33.080Z,528
2016-10-15T06:51:33.061Z,564
2016-10-15T06:52:33.370Z,580
2016-10-15T06:53:33.348Z,604
2016-10-15T06:54:33.059Z,576
2016-10-15T06:55:33.529Z,664
2016-10-15T06:56:33.000Z,712
2016-10-15T06:57:32.994Z,760
2016-10-15T06:58:32.966Z,844
2016-10-15T06:59:33.191Z,932
2016-10-15T07:00:32.944Z,928
2016-10-15T07:01:32.932Z,876
2016-10-15T07:02:32.910Z,892
2016-10-15T07:03:32.900Z,948
2016-10-15T07:04:32.885Z,996
2016-10-15T07:05:33.205Z,956
2016-10-15T07:06:32.854Z,908
2016-10-15T07:07:33.157Z,848
2016-10-15T07:08:33.482Z,752
2016-10-15T07:09:33.129Z,724
2016-10-15T07:10:33.125Z,724
2016-10-15T07:11:33.100Z,852
2016-10-15T07:12:32.781Z,1072
2016-10-15T07:13:32.813Z,1172
2016-10-15T07:14:32.959Z,1444
2016-10-15T07:15:33.679Z,1316
2016-10-15T07:16:32.778Z,1336
2016-10-15T07:17:33.018Z,1404
2016-10-15T07:18:32.700Z,1336
2016-10-15T07:19:32.690Z,1360
2016-10-15T07:20:32.668Z,1328
2016-10-15T07:21:32.670Z,1300
2016-10-15T07:22:32.640Z,1244
2016-10-15T07:23:32.646Z,1164
2016-10-15T07:24:32.931Z,1048
2016-10-15T07:25:32.915Z,988
2016-10-15T07:26:32.586Z,932
2016-10-15T07:27:32.581Z,916
2016-10-15T07:28:32.883Z,928
2016-10-15T07:29:32.554Z,924
2016-10-15T07:30:32.554Z,972
2016-10-15T07:31:32.523Z,1008
2016-10-15T07:32:32.513Z,960
2016-10-15T07:33:32.820Z,1156
2016-10-15T07:34:32.808Z,1056
2016-10-15T07:35:32.465Z,888
2016-10-15T07:36:32.456Z,808
2016-10-15T07:37:32.452Z,820
2016-10-15T07:38:32.763Z,940
2016-10-15T07:39:32.444Z,1056
2016-10-15T07:40:33.042Z,1288
2016-10-15T07:42:02.537Z,1264
2016-10-15T07:42:32.383Z,1176
2016-10-15T07:43:32.675Z,936
2016-10-15T07:44:32.352Z,900
2016-10-15T07:45:32.653Z,884
2016-10-15T07:46:32.315Z,860
2016-10-15T07:47:32.630Z,892
2016-10-15T07:48:32.351Z,944
2016-10-15T07:49:32.298Z,1172
2016-10-15T07:50:32.593Z,1336
2016-10-15T07:51:32.268Z,1584
2016-10-15T07:52:32.243Z,1756
2016-10-15T07:53:32.237Z,1820
2016-10-15T07:54:32.848Z,1828
2016-10-15T07:55:32.209Z,1804
2016-10-15T07:56:32.207Z,1772
2016-10-15T07:57:32.177Z,2068
2016-10-15T07:58:32.215Z,2280
2016-10-15T07:59:32.770Z,2572
2016-10-15T08:00:32.452Z,2600
2016-10-15T08:01:32.121Z,2612
2016-10-15T08:02:32.117Z,2576
2016-10-15T08:03:32.413Z,2692
2016-10-15T08:04:32.087Z,2452
2016-10-15T08:05:32.385Z,2808
2016-10-15T08:06:32.375Z,3156
2016-10-15T08:07:32.063Z,2932
2016-10-15T08:08:32.026Z,2712
2016-10-15T08:09:32.363Z,2784
2016-10-15T08:10:32.010Z,2880
2016-10-15T08:11:31.992Z,2904
2016-10-15T08:12:31.980Z,2512
2016-10-15T08:13:31.972Z,2216
2016-10-15T08:14:31.951Z,1972
2016-10-15T08:15:31.947Z,1792
2016-10-15T08:16:32.273Z,1724
2016-10-15T08:17:31.931Z,1672
2016-10-15T08:18:32.234Z,1720
2016-10-15T08:19:31.896Z,1560
2016-10-15T08:20:32.528Z,1620
2016-10-15T08:21:31.864Z,1552
2016-10-15T08:22:31.855Z,1632
2016-10-15T08:23:31.838Z,1620
2016-10-15T08:24:31.830Z,1496
2016-10-15T08:25:31.820Z,1496
2016-10-15T08:26:31.814Z,1628
2016-10-15T08:27:32.103Z,1648
2016-10-15T08:28:32.093Z,1604
2016-10-15T08:29:31.777Z,1376
2016-10-15T08:30:31.752Z,1400
2016-10-15T08:31:31.748Z,1400
2016-10-15T08:32:31.730Z,1612
2016-10-15T08:33:31.718Z,1620
2016-10-15T08:34:32.016Z,1764
2016-10-15T08:35:31.694Z,1752
2016-10-15T08:36:31.676Z,1840
2016-10-15T08:37:31.677Z,1932
2016-10-15T08:38:31.660Z,1876
2016-10-15T08:39:31.964Z,1856
2016-10-15T08:40:31.649Z,1976
2016-10-15T08:41:31.940Z,2280
2016-10-15T08:42:31.916Z,2368
2016-10-15T08:43:31.594Z,2340
2016-10-15T08:44:31.599Z,2712
2016-10-15T08:45:31.566Z,3172
2016-10-15T08:46:32.186Z,2720
2016-10-15T08:47:31.545Z,2688
2016-10-15T08:48:31.534Z,2788
2016-10-15T08:49:31.884Z,2796
2016-10-15T08:50:31.518Z,3136
2016-10-15T08:51:31.495Z,3400
2016-10-15T08:52:31.785Z,3624
2016-10-15T08:53:31.470Z,2972
2016-10-15T08:54:31.760Z,2696
2016-10-15T08:55:31.744Z,3024
2016-10-15T08:56:31.448Z,3560
2016-10-15T08:57:31.718Z,3056
2016-10-15T08:58:31.782Z,3160
2016-10-15T08:59:31.705Z,2908
2016-10-15T09:00:31.582Z,2352
2016-10-15T09:01:31.363Z,2976
2016-10-15T09:02:31.353Z,2820
2016-10-15T09:03:31.366Z,2672
2016-10-15T09:04:31.644Z,2488
2016-10-15T09:05:31.948Z,3128
2016-10-15T09:06:31.306Z,3472
2016-10-15T09:07:31.616Z,3844
2016-10-15T09:08:31.292Z,3272
2016-10-15T09:09:31.598Z,3792
2016-10-15T09:10:31.574Z,3348
2016-10-15T09:11:31.550Z,3224
2016-10-15T09:12:31.548Z,3396
2016-10-15T09:13:31.212Z,2392
2016-10-15T09:14:31.420Z,2592
2016-10-15T09:15:31.190Z,2112
2016-10-15T09:16:31.174Z,1872
2016-10-15T09:17:31.530Z,1524
2016-10-15T09:18:31.476Z,1528
2016-10-15T09:19:31.138Z,1488
2016-10-15T09:20:31.131Z,1452
2016-10-15T09:21:31.113Z,1348
2016-10-15T09:22:31.422Z,1660
2016-10-15T09:23:31.448Z,2136
2016-10-15T09:24:31.567Z,2744
2016-10-15T09:25:31.395Z,2784
2016-10-15T09:26:31.925Z,2516
2016-10-15T09:27:31.423Z,2948
2016-10-15T09:28:31.107Z,3460
2016-10-15T09:29:31.395Z,2960
2016-10-15T09:30:31.501Z,2848
2016-10-15T09:31:31.288Z,3728
2016-10-15T09:32:31.835Z,2872
2016-10-15T09:33:31.305Z,4676
2016-10-15T09:34:31.986Z,4144
2016-10-15T09:35:31.275Z,3176
2016-10-15T09:36:31.291Z,2320
2016-10-15T09:37:31.575Z,1704
2016-10-15T09:38:31.764Z,2372
2016-10-15T09:39:31.232Z,2784
2016-10-15T09:40:31.541Z,4736
2016-10-15T09:41:31.144Z,3488
2016-10-15T09:42:32.197Z,2848
2016-10-15T09:43:31.297Z,2920
2016-10-15T09:44:31.954Z,3824
2016-10-15T09:45:31.758Z,3696
2016-10-15T09:46:31.220Z,4088
2016-10-15T09:47:31.279Z,3100
2016-10-15T09:48:31.531Z,2796
2016-10-15T09:49:31.105Z,3836
2016-10-15T09:50:31.139Z,4412
2016-10-15T09:51:30.753Z,4484
2016-10-15T09:52:30.738Z,2612
2016-10-15T09:53:31.049Z,3216
2016-10-15T09:54:31.026Z,2508
2016-10-15T09:55:31.065Z,2200
2016-10-15T09:56:30.691Z,1988
2016-10-15T09:57:30.691Z,2660
2016-10-15T09:58:30.722Z,2532
2016-10-15T09:59:30.650Z,2924
2016-10-15T10:00:30.693Z,3280
2016-10-15T10:01:30.621Z,5236
2016-10-15T10:02:30.932Z,4460
2016-10-15T10:03:30.605Z,4116
2016-10-15T10:04:30.596Z,4184
2016-10-15T10:05:30.964Z,4932
2016-10-15T10:06:30.884Z,5776
2016-10-15T10:07:30.550Z,4376
2016-10-15T10:08:30.551Z,3884
2016-10-15T10:09:30.544Z,3532
2016-10-15T10:10:30.521Z,3236
2016-10-15T10:11:30.825Z,2740
2016-10-15T10:12:30.492Z,3516
2016-10-15T10:13:30.483Z,3616
2016-10-15T10:14:30.479Z,3516
2016-10-15T10:15:30.505Z,3052
2016-10-15T10:16:30.447Z,4204
2016-10-15T10:17:30.432Z,4100
2016-10-15T10:18:30.426Z,3476
2016-10-15T10:19:30.416Z,3388
2016-10-15T10:20:30.711Z,3124
2016-10-15T10:21:30.387Z,2936
2016-10-15T10:22:30.380Z,3024
2016-10-15T10:23:30.364Z,2660
2016-10-15T10:24:30.356Z,2204
2016-10-15T10:25:30.342Z,1824
2016-10-15T10:26:30.342Z,1468
2016-10-15T10:27:30.645Z,1580
2016-10-15T10:28:30.638Z,2236
2016-10-15T10:29:30.300Z,2920
2016-10-15T10:30:30.285Z,3076
2016-10-15T10:31:30.291Z,3140
2016-10-15T10:32:31.116Z,3124
2016-10-15T10:33:30.891Z,3708
2016-10-15T10:34:30.247Z,3272
2016-10-15T10:35:30.856Z,3256
2016-10-15T10:36:30.226Z,3052
2016-10-15T10:37:30.527Z,3068
2016-10-15T10:38:30.711Z,2892
2016-10-15T10:39:30.815Z,3080
2016-10-15T10:40:30.852Z,2356
2016-10-15T10:41:30.165Z,2704
2016-10-15T10:42:30.457Z,2364
2016-10-15T10:43:30.130Z,3200
2016-10-15T10:44:30.435Z,2724
2016-10-15T10:45:30.119Z,2688
2016-10-15T10:46:30.114Z,3680
2016-10-15T10:47:30.112Z,3288
2016-10-15T10:48:30.073Z,3436
2016-10-15T10:49:30.397Z,2816
2016-10-15T10:50:30.461Z,2556
2016-10-15T10:51:30.241Z,2504
2016-10-15T10:52:30.036Z,2340
2016-10-15T10:53:30.328Z,2464
2016-10-15T10:54:30.009Z,2700
2016-10-15T10:55:30.006Z,2716
2016-10-15T10:56:30.316Z,2520
2016-10-15T10:57:29.972Z,2512
2016-10-15T10:58:29.952Z,2064
2016-10-15T10:59:29.961Z,1612
2016-10-15T11:00:30.252Z,1552
2016-10-15T11:01:29.923Z,1384
2016-10-15T11:02:29.910Z,1544
2016-10-15T11:03:29.916Z,1948
2016-10-15T11:04:29.895Z,2292
2016-10-15T11:05:30.177Z,2932
2016-10-15T11:06:30.167Z,2848
2016-10-15T11:07:29.837Z,2476
2016-10-15T11:08:30.145Z,2452
2016-10-15T11:09:29.813Z,2528
2016-10-15T11:10:29.795Z,2244
2016-10-15T11:11:29.792Z,2144
2016-10-15T11:12:30.083Z,1944
2016-10-15T11:13:30.078Z,2540
2016-10-15T11:14:29.956Z,2704
2016-10-15T11:15:29.740Z,2968
2016-10-15T11:16:30.033Z,3356
2016-10-15T11:17:29.709Z,3308
2016-10-15T11:18:30.022Z,3096
2016-10-15T11:19:29.680Z,3008
2016-10-15T11:20:29.681Z,2900
2016-10-15T11:21:29.988Z,2976
2016-10-15T11:22:29.641Z,3216
2016-10-15T11:23:29.952Z,2708
2016-10-15T11:24:29.941Z,3344
2016-10-15T11:25:29.602Z,3392
2016-10-15T11:26:29.907Z,3200
2016-10-15T11:27:29.613Z,3444
2016-10-15T11:28:29.882Z,3356
2016-10-15T11:29:29.556Z,3160
2016-10-15T11:30:29.551Z,2876
2016-10-15T11:31:29.530Z,3004
2016-10-15T11:32:29.500Z,2888
2016-10-15T11:33:29.830Z,2836
2016-10-15T11:34:30.125Z,2572
2016-10-15T11:35:29.783Z,2524
2016-10-15T11:36:29.471Z,2564
2016-10-15T11:37:29.762Z,2556
2016-10-15T11:38:29.441Z,2312
2016-10-15T11:39:29.729Z,2044
2016-10-15T11:40:29.407Z,1864
2016-10-15T11:41:29.711Z,1676
2016-10-15T11:42:30.015Z,1676
2016-10-15T11:43:30.004Z,1392
2016-10-15T11:44:29.669Z,1228
2016-10-15T11:45:29.665Z,1380
2016-10-15T11:46:29.658Z,1308
2016-10-15T11:47:29.337Z,1568
2016-10-15T11:48:29.321Z,1676
2016-10-15T11:49:29.621Z,1708
2016-10-15T11:50:29.300Z,1592
2016-10-15T11:51:29.898Z,1908
2016-10-15T11:52:29.264Z,2080
2016-10-15T11:53:29.877Z,2032
2016-10-15T11:54:29.768Z,1704
2016-10-15T11:55:29.852Z,1840
2016-10-15T11:56:29.550Z,1716
2016-10-15T11:57:29.205Z,2020
2016-10-15T11:58:29.492Z,2036
2016-10-15T11:59:29.696Z,2148
2016-10-15T12:00:29.473Z,2148
2016-10-15T12:01:29.191Z,2040
2016-10-15T12:02:29.443Z,2016
2016-10-15T12:03:29.421Z,2052
2016-10-15T12:04:29.096Z,1884
2016-10-15T12:05:29.394Z,1996
2016-10-15T12:06:29.121Z,2260
2016-10-15T12:07:29.378Z,2352
2016-10-15T12:08:29.043Z,2656
2016-10-15T12:09:29.397Z,2668
2016-10-15T12:10:29.341Z,3324
2016-10-15T12:11:29.001Z,2860
2016-10-15T12:12:29.309Z,3136
2016-10-15T12:13:28.984Z,2940
2016-10-15T12:14:28.977Z,2876
2016-10-15T12:15:29.260Z,2660
2016-10-15T12:16:29.328Z,3716
2016-10-15T12:17:29.551Z,3984
2016-10-15T12:18:29.233Z,4280
2016-10-15T12:19:29.232Z,3680
2016-10-15T12:20:29.527Z,3588
2016-10-15T12:21:28.876Z,3548
2016-10-15T12:22:29.173Z,3944
2016-10-15T12:23:29.178Z,3796
2016-10-15T12:24:29.150Z,3672
2016-10-15T12:25:28.844Z,3972
2016-10-15T12:26:28.829Z,4164
2016-10-15T12:27:29.188Z,4048
2016-10-15T12:28:29.447Z,4636
2016-10-15T12:29:29.171Z,5448
2016-10-15T12:30:29.125Z,5112
2016-10-15T12:31:28.833Z,4496
2016-10-15T12:32:29.422Z,4948
2016-10-15T12:33:28.871Z,4616
2016-10-15T12:34:28.713Z,3808
2016-10-15T12:35:28.709Z,4016
2016-10-15T12:36:29.335Z,3492
2016-10-15T12:37:28.674Z,3948
2016-10-15T12:38:28.968Z,4488
2016-10-15T12:39:28.976Z,4660
2016-10-15T12:40:28.938Z,4452
2016-10-15T12:41:28.623Z,4640
2016-10-15T12:42:28.920Z,4124
2016-10-15T12:43:28.585Z,3664
2016-10-15T12:44:28.891Z,3816
2016-10-15T12:45:28.887Z,4640
2016-10-15T12:46:29.194Z,4456
2016-10-15T12:47:28.873Z,4396
2016-10-15T12:48:28.840Z,4776
2016-10-15T12:49:28.831Z,4936
2016-10-15T12:50:28.531Z,4876
2016-10-15T12:51:28.496Z,4700
2016-10-15T12:52:28.794Z,4400
2016-10-15T12:53:28.805Z,4440
2016-10-15T12:54:29.109Z,4692
2016-10-15T12:55:28.771Z,4336
2016-10-15T12:56:28.444Z,4308
2016-10-15T12:57:28.412Z,4224
2016-10-15T12:58:28.744Z,3808
2016-10-15T12:59:29.037Z,3924
2016-10-15T13:00:28.432Z,3728
2016-10-15T13:01:29.021Z,4096
2016-10-15T13:02:28.680Z,3624
2016-10-15T13:03:29.289Z,3712
2016-10-15T13:04:28.996Z,4080
2016-10-15T13:05:28.645Z,4172
2016-10-15T13:06:28.944Z,4336
2016-10-15T13:07:28.618Z,4792
2016-10-15T13:08:28.301Z,4972
2016-10-15T13:09:28.592Z,5312
2016-10-15T13:10:28.583Z,5580
2016-10-15T13:11:28.254Z,5880
2016-10-15T13:12:28.303Z,6460
2016-10-15T13:13:28.538Z,6308
2016-10-15T13:14:29.128Z,5892
2016-10-15T13:15:28.824Z,5276
2016-10-15T13:16:28.503Z,4676
2016-10-15T13:17:28.183Z,4344
2016-10-15T13:18:28.494Z,4172
2016-10-15T13:19:28.789Z,4096
2016-10-15T13:20:28.135Z,4088
2016-10-15T13:21:28.132Z,4260
2016-10-15T13:22:28.436Z,4468
2016-10-15T13:23:28.111Z,4600
2016-10-15T13:24:28.108Z,4420
2016-10-15T13:25:28.320Z,4052
2016-10-15T13:26:28.076Z,4388
2016-10-15T13:27:28.080Z,5016
2016-10-15T13:28:28.052Z,4864
2016-10-15T13:29:28.036Z,4764
2016-10-15T13:30:28.040Z,4420
2016-10-15T13:31:28.023Z,4688
2016-10-15T13:32:28.025Z,4480
2016-10-15T13:33:28.306Z,4484
2016-10-15T13:34:28.306Z,4808
2016-10-15T13:35:28.292Z,5124
2016-10-15T13:36:27.964Z,5084
2016-10-15T13:37:27.971Z,5356
2016-10-15T13:38:28.248Z,5444
2016-10-15T13:39:27.943Z,6092
2016-10-15T13:40:28.224Z,6348
2016-10-15T13:41:28.214Z,6928
2016-10-15T13:42:27.886Z,6552
2016-10-15T13:43:27.880Z,6184
2016-10-15T13:44:27.865Z,6108
2016-10-15T13:45:28.175Z,6168
2016-10-15T13:46:28.152Z,5736
2016-10-15T13:47:27.842Z,5584
2016-10-15T13:48:28.138Z,5716
2016-10-15T13:49:28.123Z,5668
2016-10-15T13:50:28.158Z,5576
2016-10-15T13:51:28.103Z,5636
2016-10-15T13:52:28.090Z,5484
2016-10-15T13:53:28.432Z,5604
2016-10-15T13:54:27.762Z,6008
2016-10-15T13:55:28.379Z,5948
2016-10-15T13:56:27.741Z,6048
2016-10-15T13:57:28.058Z,6316